FNCA

Cabinda Airport

Cabinda, Angola
METAR FNCA 201700Z 24006KT 9999 FEW020 24/21 Q1015
Observed Flight Rules
Aug-20 @ 17:00 UTC (7 hours ago) Visual Flight Rules
Wind Visibility Clouds
240° at 6 knots 10,000+ meters
  • Few at 2,000' AGL
Temperatures Readings
Current 24°C / 75°F
Dewpoint 21°C / 70°F
Humidity 83%
Altimeter 29.97" Hg
Pressure 1015 hPa
Elevation 20
METAR FNCA 201700Z 24006KT 9999 FEW020 24/21 Q1015
Observed Flight Rules
Aug-20 @ 17:00 UTC
(7 hours ago)
VFR
Wind Visibility
240° at 6 knots 10,000+ meters
Clouds
  • Few at 2,000' AGL
Temperature Dewpoint
24°C / 75°F 21°C / 70°F
Humidity Altimeter Pressure
83% 29.97" Hg 1015 hPa